createdAt,value
2018-04-06T00:00:52.186Z,1001.8
2018-04-06T00:01:52.844Z,1001.8
2018-04-06T00:02:53.531Z,1001.8
2018-04-06T00:03:54.177Z,1001.8
2018-04-06T00:04:54.826Z,1001.8
2018-04-06T00:05:55.516Z,1001.8
2018-04-06T00:06:56.166Z,1001.8
2018-04-06T00:07:56.852Z,1001.8
2018-04-06T00:08:57.503Z,1001.9
2018-04-06T00:09:58.156Z,1001.8
2018-04-06T00:10:58.803Z,1001.8
2018-04-06T00:11:59.453Z,1001.8
2018-04-06T00:13:00.104Z,1001.9
2018-04-06T00:14:00.755Z,1001.9
2018-04-06T00:15:01.409Z,1001.8
2018-04-06T00:16:02.059Z,1001.9
2018-04-06T00:17:02.712Z,1001.9
2018-04-06T00:18:03.361Z,1001.9
2018-04-06T00:19:04.013Z,1001.9
2018-04-06T00:20:04.662Z,1001.9
2018-04-06T00:21:05.313Z,1001.9
2018-04-06T00:22:05.962Z,1001.9
2018-04-06T00:23:06.613Z,1001.9
2018-04-06T00:24:07.263Z,1001.8
2018-04-06T00:25:07.917Z,1001.8
2018-04-06T00:26:08.563Z,1001.8
2018-04-06T00:27:09.214Z,1001.8
2018-04-06T00:28:09.864Z,1001.7
2018-04-06T00:29:10.515Z,1001.8
2018-04-06T00:30:11.164Z,1001.8
2018-04-06T00:31:11.816Z,1001.8
2018-04-06T00:32:12.466Z,1001.9
2018-04-06T00:33:13.116Z,1001.9
2018-04-06T00:34:13.765Z,1001.9
2018-04-06T00:35:14.417Z,1001.9
2018-04-06T00:36:15.067Z,1002.0
2018-04-06T00:37:15.754Z,1002.0
2018-04-06T00:38:16.403Z,1002.0
2018-04-06T00:39:17.058Z,1001.9
2018-04-06T00:40:17.704Z,1002.0
2018-04-06T00:41:18.354Z,1001.9
2018-04-06T00:42:19.004Z,1001.9
2018-04-06T00:43:19.656Z,1001.9
2018-04-06T00:44:20.305Z,1001.9
2018-04-06T00:45:20.992Z,1001.9
2018-04-06T00:46:21.643Z,1001.9
2018-04-06T00:47:22.293Z,1001.9
2018-04-06T00:48:22.943Z,1001.9
2018-04-06T00:49:23.593Z,1001.9
2018-04-06T00:50:24.245Z,1001.9
2018-04-06T00:51:24.896Z,1001.9
2018-04-06T00:52:25.544Z,1001.9
2018-04-06T00:53:26.196Z,1002.0
2018-04-06T00:54:26.845Z,1002.0
2018-04-06T00:55:27.496Z,1002.1
2018-04-06T00:56:28.146Z,1002.0
2018-04-06T00:57:28.799Z,1002.0
2018-04-06T00:58:29.447Z,1002.0
2018-04-06T00:59:30.099Z,1002.0
2018-04-06T01:00:30.748Z,1002.0
2018-04-06T01:01:31.434Z,1002.0
2018-04-06T01:02:32.086Z,1001.9
2018-04-06T01:03:32.737Z,1001.9
2018-04-06T01:04:33.385Z,1001.9
2018-04-06T01:05:34.035Z,1001.9
2018-04-06T01:06:34.684Z,1001.9
2018-04-06T01:07:35.335Z,1001.9
2018-04-06T01:08:35.984Z,1002.0
2018-04-06T01:09:36.633Z,1002.0
2018-04-06T01:10:37.286Z,1002.1
2018-04-06T01:11:37.935Z,1002.1
2018-04-06T01:12:38.589Z,1002.0
2018-04-06T01:13:39.236Z,1002.1
2018-04-06T01:14:39.887Z,1002.0
2018-04-06T01:15:40.536Z,1002.0
2018-04-06T01:16:41.191Z,1002.0
2018-04-06T01:17:41.873Z,1002.0
2018-04-06T01:18:42.524Z,1001.9
2018-04-06T01:19:43.177Z,1001.9
2018-04-06T01:20:43.860Z,1001.9
2018-04-06T01:21:44.511Z,1001.9
2018-04-06T01:22:45.161Z,1001.9
2018-04-06T01:23:45.811Z,1001.9
2018-04-06T01:24:46.461Z,1002.0
2018-04-06T01:25:47.112Z,1002.0
2018-04-06T01:26:47.767Z,1002.0
2018-04-06T01:27:48.411Z,1002.0
2018-04-06T01:28:49.060Z,1002.0
2018-04-06T01:29:49.712Z,1002.0
2018-04-06T01:30:50.361Z,1002.0
2018-04-06T01:31:51.011Z,1001.9
2018-04-06T01:32:51.661Z,1001.9
2018-04-06T01:33:52.312Z,1001.9
2018-04-06T01:34:52.960Z,1001.9
2018-04-06T01:35:53.610Z,1001.9
2018-04-06T01:36:54.260Z,1001.8
2018-04-06T01:37:54.911Z,1001.8
2018-04-06T01:38:55.560Z,1001.8
2018-04-06T01:39:56.211Z,1001.8
2018-04-06T01:40:56.860Z,1001.8
2018-04-06T01:41:57.513Z,1001.8
2018-04-06T01:42:58.161Z,1001.8
2018-04-06T01:43:58.811Z,1001.8
2018-04-06T01:44:59.463Z,1001.8
2018-04-06T01:46:00.115Z,1001.8
2018-04-06T01:47:00.762Z,1001.8
2018-04-06T01:48:01.413Z,1001.8
2018-04-06T01:49:02.107Z,1001.9
2018-04-06T01:50:02.752Z,1001.8
2018-04-06T01:51:03.402Z,1001.8
2018-04-06T01:52:04.052Z,1001.7
2018-04-06T01:53:04.701Z,1001.7
2018-04-06T01:54:05.354Z,1001.7
2018-04-06T01:55:06.002Z,1001.7
2018-04-06T01:56:06.652Z,1001.7
2018-04-06T01:57:07.301Z,1001.8
2018-04-06T01:58:07.953Z,1001.8
2018-04-06T01:59:08.602Z,1001.8
2018-04-06T02:00:09.251Z,1001.8
2018-04-06T02:01:09.900Z,1001.9
2018-04-06T02:02:10.588Z,1001.8
2018-04-06T02:03:11.238Z,1001.9
2018-04-06T02:04:11.887Z,1001.9
2018-04-06T02:05:12.538Z,1001.9
2018-04-06T02:06:13.188Z,1001.9
2018-04-06T02:07:13.838Z,1001.8
2018-04-06T02:08:14.487Z,1001.9
2018-04-06T02:09:15.136Z,1001.8
2018-04-06T02:10:15.788Z,1001.8
2018-04-06T02:11:16.839Z,1001.8
2018-04-06T02:12:17.486Z,1001.8
2018-04-06T02:13:18.136Z,1001.8
2018-04-06T02:14:18.786Z,1001.8
2018-04-06T02:15:19.437Z,1001.8
2018-04-06T02:16:20.089Z,1001.9
2018-04-06T02:17:20.736Z,1001.9
2018-04-06T02:18:21.425Z,1001.9
2018-04-06T02:19:22.073Z,1001.9
2018-04-06T02:20:22.723Z,1002.0
2018-04-06T02:21:23.374Z,1002.0
2018-04-06T02:22:24.023Z,1002.0
2018-04-06T02:23:24.674Z,1002.0
2018-04-06T02:24:25.346Z,1002.0
2018-04-06T02:25:25.977Z,1001.9
2018-04-06T02:26:26.623Z,1002.0
2018-04-06T02:27:27.274Z,1002.0
2018-04-06T02:28:27.924Z,1002.1
2018-04-06T02:29:28.577Z,1002.1
2018-04-06T02:30:29.224Z,1002.1
2018-04-06T02:31:29.876Z,1002.2
2018-04-06T02:32:30.528Z,1002.2
2018-04-06T02:33:31.174Z,1002.2
2018-04-06T02:34:31.822Z,1002.3
2018-04-06T02:35:32.511Z,1002.2
2018-04-06T02:36:33.161Z,1002.2
2018-04-06T02:37:33.810Z,1002.2
2018-04-06T02:38:34.459Z,1002.2
2018-04-06T02:39:35.146Z,1002.1
2018-04-06T02:40:35.796Z,1002.1
2018-04-06T02:41:36.498Z,1002.1
2018-04-06T02:42:37.182Z,1002.1
2018-04-06T02:43:37.892Z,1002.1
2018-04-06T02:44:38.485Z,1002.2
2018-04-06T02:45:39.131Z,1002.2
2018-04-06T02:46:39.781Z,1002.2
2018-04-06T02:47:40.431Z,1002.2
2018-04-06T02:48:41.082Z,1002.3
2018-04-06T02:49:41.731Z,1002.2
2018-04-06T02:50:42.382Z,1002.2
2018-04-06T02:51:43.068Z,1002.2
2018-04-06T02:52:43.718Z,1002.2
2018-04-06T02:53:44.366Z,1002.2
2018-04-06T02:54:45.020Z,1002.1
2018-04-06T02:55:45.669Z,1002.1
2018-04-06T02:56:46.320Z,1002.2
2018-04-06T02:57:46.974Z,1002.2
2018-04-06T02:58:47.620Z,1002.2
2018-04-06T02:59:48.269Z,1002.3
2018-04-06T03:00:48.920Z,1002.3
2018-04-06T03:01:49.576Z,1002.3
2018-04-06T03:02:50.254Z,1002.3
2018-04-06T03:03:50.904Z,1002.3
2018-04-06T03:04:51.552Z,1002.3
2018-04-06T03:05:52.204Z,1002.3
2018-04-06T03:06:52.852Z,1002.3
2018-04-06T03:07:53.501Z,1002.3
2018-04-06T03:08:54.151Z,1002.3
2018-04-06T03:09:54.801Z,1002.4
2018-04-06T03:10:55.449Z,1002.4
2018-04-06T03:11:56.099Z,1002.4
2018-04-06T03:12:56.748Z,1002.4
2018-04-06T03:13:57.398Z,1002.4
2018-04-06T03:14:58.054Z,1002.4
2018-04-06T03:15:58.698Z,1002.5
2018-04-06T03:16:59.348Z,1002.5
2018-04-06T03:17:59.997Z,1002.4
2018-04-06T03:19:00.647Z,1002.4
2018-04-06T03:20:01.296Z,1002.4
2018-04-06T03:21:01.947Z,1002.4
2018-04-06T03:22:02.598Z,1002.5
2018-04-06T03:23:03.249Z,1002.4
2018-04-06T03:24:03.898Z,1002.4
2018-04-06T03:25:04.549Z,1002.4
2018-04-06T03:26:05.197Z,1002.4
2018-04-06T03:27:05.848Z,1002.4
2018-04-06T03:28:06.496Z,1002.4
2018-04-06T03:29:07.146Z,1002.5
2018-04-06T03:30:07.796Z,1002.4
2018-04-06T03:31:08.447Z,1002.4
2018-04-06T03:32:09.096Z,1002.4
2018-04-06T03:33:09.749Z,1002.4
2018-04-06T03:34:10.394Z,1002.4
2018-04-06T03:35:11.045Z,1002.4
2018-04-06T03:36:11.694Z,1002.5
2018-04-06T03:37:12.344Z,1002.5
2018-04-06T03:38:12.993Z,1002.5
2018-04-06T03:39:13.643Z,1002.4
2018-04-06T03:40:14.293Z,1002.5
2018-04-06T03:41:14.943Z,1002.5
2018-04-06T03:42:15.595Z,1002.5
2018-04-06T03:43:16.242Z,1002.5
2018-04-06T03:44:16.891Z,1002.5
2018-04-06T03:45:17.541Z,1002.5
2018-04-06T03:46:18.190Z,1002.5
2018-04-06T03:47:18.840Z,1002.5
2018-04-06T03:48:19.489Z,1002.5
2018-04-06T03:49:20.138Z,1002.5
2018-04-06T03:50:20.786Z,1002.4
2018-04-06T03:51:21.437Z,1002.4
2018-04-06T03:52:22.086Z,1002.4
2018-04-06T03:53:22.739Z,1002.4
2018-04-06T03:54:23.422Z,1002.4
2018-04-06T03:55:24.073Z,1002.5
2018-04-06T03:56:24.762Z,1002.4
2018-04-06T03:57:25.445Z,1002.5
2018-04-06T03:58:26.096Z,1002.4
2018-04-06T03:59:26.744Z,1002.4
2018-04-06T04:00:27.394Z,1002.4
2018-04-06T04:01:28.043Z,1002.4
2018-04-06T04:02:28.743Z,1002.4
2018-04-06T04:03:29.341Z,1002.4
2018-04-06T04:04:29.992Z,1002.4
2018-04-06T04:05:30.641Z,1002.4
2018-04-06T04:06:31.291Z,1002.5
2018-04-06T04:07:31.940Z,1002.5
2018-04-06T04:08:32.589Z,1002.5
2018-04-06T04:09:33.238Z,1002.6
2018-04-06T04:10:33.890Z,1002.6
2018-04-06T04:11:34.538Z,1002.6
2018-04-06T04:12:35.188Z,1002.6
2018-04-06T04:13:35.836Z,1002.6
2018-04-06T04:14:36.490Z,1002.5
2018-04-06T04:15:37.137Z,1002.5
2018-04-06T04:16:37.786Z,1002.5
2018-04-06T04:17:38.434Z,1002.6
2018-04-06T04:18:39.085Z,1002.5
2018-04-06T04:19:39.734Z,1002.5
2018-04-06T04:20:40.385Z,1002.6
2018-04-06T04:21:41.046Z,1002.6
2018-04-06T04:22:41.686Z,1002.6
2018-04-06T04:23:42.372Z,1002.5
2018-04-06T04:24:43.024Z,1002.5
2018-04-06T04:25:43.673Z,1002.5
2018-04-06T04:26:44.325Z,1002.5
2018-04-06T04:27:44.976Z,1002.5
2018-04-06T04:28:45.624Z,1002.5
2018-04-06T04:29:46.276Z,1002.5
2018-04-06T04:30:46.925Z,1002.5
2018-04-06T04:31:47.576Z,1002.5
2018-04-06T04:32:48.228Z,1002.6
2018-04-06T04:33:48.914Z,1002.6
2018-04-06T04:34:49.565Z,1002.6
2018-04-06T04:35:50.219Z,1002.6
2018-04-06T04:36:50.869Z,1002.6
2018-04-06T04:37:51.520Z,1002.6
2018-04-06T04:38:52.170Z,1002.6
2018-04-06T04:39:52.825Z,1002.6
2018-04-06T04:40:53.476Z,1002.7
2018-04-06T04:41:54.127Z,1002.7
2018-04-06T04:42:54.778Z,1002.7
2018-04-06T04:43:55.430Z,1002.7
2018-04-06T04:44:56.083Z,1002.7
2018-04-06T04:45:56.771Z,1002.7
2018-04-06T04:46:57.422Z,1002.7
2018-04-06T04:47:58.074Z,1002.8
2018-04-06T04:48:58.726Z,1002.7
2018-04-06T04:49:59.379Z,1002.7
2018-04-06T04:51:00.034Z,1002.7
2018-04-06T04:52:00.686Z,1002.7
2018-04-06T04:53:01.344Z,1002.8
2018-04-06T04:54:01.992Z,1002.7
2018-04-06T04:55:02.646Z,1002.8
2018-04-06T04:56:03.298Z,1002.7
2018-04-06T04:57:03.952Z,1002.7
2018-04-06T04:58:04.608Z,1002.7
2018-04-06T04:59:05.257Z,1002.7
2018-04-06T05:00:05.910Z,1002.7
2018-04-06T05:01:06.562Z,1002.8
2018-04-06T05:02:07.215Z,1002.8
2018-04-06T05:03:07.870Z,1002.8
2018-04-06T05:04:08.521Z,1002.8
2018-04-06T05:05:09.174Z,1002.7
2018-04-06T05:06:09.826Z,1002.8
2018-04-06T05:07:10.478Z,1002.8
2018-04-06T05:08:11.133Z,1002.8
2018-04-06T05:09:11.785Z,1002.7
2018-04-06T05:10:12.439Z,1002.8
2018-04-06T05:11:13.091Z,1002.8
2018-04-06T05:12:13.745Z,1002.8
2018-04-06T05:13:14.400Z,1002.8
2018-04-06T05:14:15.091Z,1002.8
2018-04-06T05:15:15.750Z,1002.8
2018-04-06T05:16:16.397Z,1002.8
2018-04-06T05:17:17.052Z,1002.8
2018-04-06T05:18:17.706Z,1002.8
2018-04-06T05:19:18.360Z,1002.8
2018-04-06T05:20:19.012Z,1002.8
2018-04-06T05:21:19.668Z,1002.9
2018-04-06T05:22:20.325Z,1002.9
2018-04-06T05:23:20.978Z,1002.9
2018-04-06T05:24:21.689Z,1002.9
2018-04-06T05:25:22.313Z,1002.9
2018-04-06T05:26:22.968Z,1002.9
2018-04-06T05:27:23.623Z,1003.0
2018-04-06T05:28:24.278Z,1003.0
2018-04-06T05:29:24.929Z,1003.0
2018-04-06T05:30:25.619Z,1003.0
2018-04-06T05:31:26.274Z,1003.0
2018-04-06T05:32:26.951Z,1003.1
2018-04-06T05:33:27.617Z,1003.1
2018-04-06T05:34:28.270Z,1003.0
2018-04-06T05:35:28.957Z,1003.1
2018-04-06T05:36:29.612Z,1003.1
2018-04-06T05:37:30.314Z,1003.0
2018-04-06T05:38:30.920Z,1003.1
2018-04-06T05:39:31.572Z,1003.1
2018-04-06T05:40:32.229Z,1003.1
2018-04-06T05:41:32.880Z,1003.1
2018-04-06T05:42:33.535Z,1003.1
2018-04-06T05:43:34.194Z,1003.1
2018-04-06T05:44:34.844Z,1003.2
2018-04-06T05:45:35.499Z,1003.1
2018-04-06T05:46:36.194Z,1003.1
2018-04-06T05:47:36.846Z,1003.1
2018-04-06T05:48:37.500Z,1003.1
2018-04-06T05:49:38.155Z,1003.1
2018-04-06T05:50:38.811Z,1003.1
2018-04-06T05:51:39.464Z,1003.2
2018-04-06T05:52:40.118Z,1003.1
2018-04-06T05:53:40.772Z,1003.1
2018-04-06T05:54:41.432Z,1003.1
2018-04-06T05:55:42.083Z,1003.1
2018-04-06T05:56:42.774Z,1003.2
2018-04-06T05:57:43.461Z,1003.1
2018-04-06T05:58:44.117Z,1003.2
2018-04-06T05:59:44.769Z,1003.2
2018-04-06T06:00:45.423Z,1003.2
2018-04-06T06:01:46.078Z,1003.2
2018-04-06T06:02:46.732Z,1003.2
2018-04-06T06:03:47.387Z,1003.2
2018-04-06T06:04:48.077Z,1003.2
2018-04-06T06:05:48.739Z,1003.2
2018-04-06T06:06:49.422Z,1003.2
2018-04-06T06:07:50.077Z,1003.2
2018-04-06T06:08:50.730Z,1003.3
2018-04-06T06:09:51.432Z,1003.2
2018-04-06T06:10:52.075Z,1003.3
2018-04-06T06:11:52.734Z,1003.2
2018-04-06T06:12:53.385Z,1003.3
2018-04-06T06:13:54.039Z,1003.3
2018-04-06T06:14:54.695Z,1003.3
2018-04-06T06:15:55.349Z,1003.3
2018-04-06T06:16:56.000Z,1003.3
2018-04-06T06:17:56.655Z,1003.3
2018-04-06T06:18:57.312Z,1003.3
2018-04-06T06:19:57.965Z,1003.4
2018-04-06T06:20:58.619Z,1003.4
2018-04-06T06:21:59.274Z,1003.4
2018-04-06T06:22:59.928Z,1003.4
2018-04-06T06:24:00.582Z,1003.4
2018-04-06T06:25:01.239Z,1003.5
2018-04-06T06:26:01.898Z,1003.5
2018-04-06T06:27:02.553Z,1003.6
2018-04-06T06:28:03.208Z,1003.5
2018-04-06T06:29:03.900Z,1003.5
2018-04-06T06:30:04.518Z,1003.6
2018-04-06T06:31:05.175Z,1003.6
2018-04-06T06:32:05.865Z,1003.6
2018-04-06T06:33:06.521Z,1003.6
2018-04-06T06:34:07.175Z,1003.6
2018-04-06T06:35:07.829Z,1003.6
2018-04-06T06:36:08.485Z,1003.6
2018-04-06T06:37:09.140Z,1003.5
2018-04-06T06:38:09.794Z,1003.5
2018-04-06T06:39:10.449Z,1003.6
2018-04-06T06:40:11.105Z,1003.5
2018-04-06T06:41:11.760Z,1003.5
2018-04-06T06:42:12.415Z,1003.6
2018-04-06T06:43:13.069Z,1003.6
2018-04-06T06:44:13.724Z,1003.6
2018-04-06T06:45:14.379Z,1003.5
2018-04-06T06:46:15.034Z,1003.5
2018-04-06T06:47:15.692Z,1003.6
2018-04-06T06:48:16.349Z,1003.6
2018-04-06T06:49:17.002Z,1003.6
2018-04-06T06:50:17.657Z,1003.6
2018-04-06T06:51:18.312Z,1003.6
2018-04-06T06:52:18.976Z,1003.6
2018-04-06T06:53:19.624Z,1003.6
2018-04-06T06:54:20.314Z,1003.6
2018-04-06T06:55:20.939Z,1003.6
2018-04-06T06:56:21.631Z,1003.6
2018-04-06T06:57:22.288Z,1003.6
2018-04-06T06:58:22.945Z,1003.6
2018-04-06T06:59:23.601Z,1003.6
2018-04-06T07:00:24.257Z,1003.7
2018-04-06T07:01:24.915Z,1003.7
2018-04-06T07:02:25.576Z,1003.7
2018-04-06T07:03:26.235Z,1003.6
2018-04-06T07:04:26.893Z,1003.6
2018-04-06T07:05:27.552Z,1003.6
2018-04-06T07:06:28.210Z,1003.6
2018-04-06T07:07:28.870Z,1003.6
2018-04-06T07:08:29.530Z,1003.6
2018-04-06T07:09:30.188Z,1003.6
2018-04-06T07:10:30.849Z,1003.6
2018-04-06T07:11:31.509Z,1003.6
2018-04-06T07:12:32.169Z,1003.7
2018-04-06T07:13:32.831Z,1003.7
2018-04-06T07:14:33.530Z,1003.7
2018-04-06T07:15:34.191Z,1003.6
2018-04-06T07:16:34.853Z,1003.6
2018-04-06T07:17:35.515Z,1003.6
2018-04-06T07:18:36.176Z,1003.6
2018-04-06T07:19:36.838Z,1003.6
2018-04-06T07:20:37.500Z,1003.6
2018-04-06T07:21:38.162Z,1003.6
2018-04-06T07:22:38.825Z,1003.6
2018-04-06T07:23:39.489Z,1003.6
2018-04-06T07:24:40.152Z,1003.6
2018-04-06T07:25:40.817Z,1003.6
2018-04-06T07:26:41.479Z,1003.6
2018-04-06T07:27:42.143Z,1003.6
2018-04-06T07:28:42.807Z,1003.6
2018-04-06T07:29:43.471Z,1003.6
2018-04-06T07:30:44.134Z,1003.6
2018-04-06T07:31:44.798Z,1003.7
2018-04-06T07:32:45.461Z,1003.7
2018-04-06T07:33:46.126Z,1003.7
2018-04-06T07:34:46.794Z,1003.6
2018-04-06T07:35:47.457Z,1003.6
2018-04-06T07:36:48.121Z,1003.6
2018-04-06T07:37:48.835Z,1003.5
2018-04-06T07:38:49.451Z,1003.6
2018-04-06T07:39:50.116Z,1003.6
2018-04-06T07:40:50.784Z,1003.6
2018-04-06T07:41:51.449Z,1003.6
2018-04-06T07:42:52.114Z,1003.6
2018-04-06T07:43:52.780Z,1003.7
2018-04-06T07:44:53.545Z,1003.6
2018-04-06T07:45:54.277Z,1003.6
2018-04-06T07:46:54.943Z,1003.7
2018-04-06T07:47:55.608Z,1003.7
2018-04-06T07:48:56.275Z,1003.7
2018-04-06T07:49:56.941Z,1003.8
2018-04-06T07:50:57.607Z,1003.7
2018-04-06T07:51:58.273Z,1003.7
2018-04-06T07:52:58.944Z,1003.7
2018-04-06T07:53:59.605Z,1003.7
2018-04-06T07:55:00.273Z,1003.7
2018-04-06T07:56:00.940Z,1003.8
2018-04-06T07:57:01.643Z,1003.7
2018-04-06T07:58:02.307Z,1003.7
2018-04-06T07:59:02.974Z,1003.7
2018-04-06T08:00:03.642Z,1003.7
2018-04-06T08:01:04.308Z,1003.7
2018-04-06T08:02:04.976Z,1003.7
2018-04-06T08:03:05.643Z,1003.7
2018-04-06T08:04:06.310Z,1003.7
2018-04-06T08:05:06.979Z,1003.7
2018-04-06T08:06:07.645Z,1003.7
2018-04-06T08:07:08.317Z,1003.7
2018-04-06T08:08:08.980Z,1003.6
2018-04-06T08:09:09.648Z,1003.6
2018-04-06T08:10:10.315Z,1003.6
2018-04-06T08:11:10.982Z,1003.6
2018-04-06T08:12:11.648Z,1003.6
2018-04-06T08:13:12.316Z,1003.6
2018-04-06T08:14:12.984Z,1003.6
2018-04-06T08:15:13.650Z,1003.6
2018-04-06T08:16:14.321Z,1003.6
2018-04-06T08:17:14.987Z,1003.6
2018-04-06T08:18:15.656Z,1003.6
2018-04-06T08:19:16.325Z,1003.6
2018-04-06T08:20:16.995Z,1003.6
2018-04-06T08:21:17.664Z,1003.6
2018-04-06T08:22:18.330Z,1003.6
2018-04-06T08:23:18.998Z,1003.6
2018-04-06T08:24:19.667Z,1003.6
2018-04-06T08:25:20.333Z,1003.6
2018-04-06T08:26:21.092Z,1003.6
2018-04-06T08:27:21.669Z,1003.6
2018-04-06T08:28:22.336Z,1003.5
2018-04-06T08:29:23.005Z,1003.5
2018-04-06T08:30:23.676Z,1003.6
2018-04-06T08:31:24.351Z,1003.6
2018-04-06T08:32:25.029Z,1003.6
2018-04-06T08:33:25.696Z,1003.6
2018-04-06T08:34:26.367Z,1003.5
2018-04-06T08:35:27.037Z,1003.5
2018-04-06T08:36:27.704Z,1003.6
2018-04-06T08:37:28.371Z,1003.5
2018-04-06T08:38:29.039Z,1003.5
2018-04-06T08:39:29.708Z,1003.6
2018-04-06T08:40:30.375Z,1003.6
2018-04-06T08:41:31.046Z,1003.6
2018-04-06T08:42:31.713Z,1003.5
2018-04-06T08:43:32.380Z,1003.6
2018-04-06T08:44:33.046Z,1003.6
2018-04-06T08:45:33.717Z,1003.6
2018-04-06T08:46:34.384Z,1003.5
2018-04-06T08:47:35.097Z,1003.6
2018-04-06T08:48:35.719Z,1003.5
2018-04-06T08:49:36.386Z,1003.5
2018-04-06T08:50:37.055Z,1003.5
2018-04-06T08:51:37.723Z,1003.6
2018-04-06T08:52:38.390Z,1003.5
2018-04-06T08:53:39.057Z,1003.5
2018-04-06T08:54:39.736Z,1003.5
2018-04-06T08:55:40.421Z,1003.5
2018-04-06T08:56:41.089Z,1003.5
2018-04-06T08:57:41.756Z,1003.5
2018-04-06T08:58:42.424Z,1003.5
2018-04-06T08:59:43.093Z,1003.5
2018-04-06T09:00:43.760Z,1003.5
2018-04-06T09:01:44.428Z,1003.5
2018-04-06T09:02:45.098Z,1003.5
2018-04-06T09:03:45.765Z,1003.5
2018-04-06T09:04:46.469Z,1003.5
2018-04-06T09:05:47.101Z,1003.5
2018-04-06T09:06:47.784Z,1003.5
2018-04-06T09:07:48.433Z,1003.5
2018-04-06T09:08:49.100Z,1003.5
2018-04-06T09:09:49.773Z,1003.4
2018-04-06T09:10:50.440Z,1003.4
2018-04-06T09:11:51.112Z,1003.4
2018-04-06T09:12:51.775Z,1003.4
2018-04-06T09:13:52.454Z,1003.4
2018-04-06T09:14:53.111Z,1003.4
2018-04-06T09:15:53.817Z,1003.4
2018-04-06T09:16:54.482Z,1003.4
2018-04-06T09:17:55.150Z,1003.4
2018-04-06T09:18:55.821Z,1003.4
2018-04-06T09:19:56.484Z,1003.4
2018-04-06T09:20:57.158Z,1003.4
2018-04-06T09:21:57.818Z,1003.4
2018-04-06T09:22:58.486Z,1003.4
2018-04-06T09:23:59.155Z,1003.4
2018-04-06T09:24:59.824Z,1003.4
2018-04-06T09:26:00.494Z,1003.4
2018-04-06T09:27:01.162Z,1003.4
2018-04-06T09:28:01.830Z,1003.4
2018-04-06T09:29:02.533Z,1003.4
2018-04-06T09:30:03.202Z,1003.4
2018-04-06T09:31:03.874Z,1003.4
2018-04-06T09:32:04.535Z,1003.4
2018-04-06T09:33:05.240Z,1003.3
2018-04-06T09:34:05.909Z,1003.3
2018-04-06T09:35:06.575Z,1003.3
2018-04-06T09:36:07.244Z,1003.3
2018-04-06T09:37:07.911Z,1003.3
2018-04-06T09:38:08.576Z,1003.3
2018-04-06T09:39:09.245Z,1003.3
2018-04-06T09:40:09.911Z,1003.2
2018-04-06T09:41:10.578Z,1003.2
2018-04-06T09:42:11.248Z,1003.1
2018-04-06T09:43:11.914Z,1003.1
2018-04-06T09:44:12.582Z,1003.1
2018-04-06T09:45:13.247Z,1003.1
2018-04-06T09:46:13.915Z,1003.1
2018-04-06T09:47:14.583Z,1003.2
2018-04-06T09:48:15.251Z,1003.1
2018-04-06T09:49:15.916Z,1003.1
2018-04-06T09:50:16.584Z,1003.1
2018-04-06T09:51:17.250Z,1003.1
2018-04-06T09:52:17.917Z,1003.0
2018-04-06T09:53:18.584Z,1003.1
2018-04-06T09:54:19.251Z,1003.1
2018-04-06T09:55:19.917Z,1003.0
2018-04-06T09:56:20.584Z,1003.0
2018-04-06T09:57:21.302Z,1003.0
2018-04-06T09:58:21.947Z,1003.0
2018-04-06T09:59:22.614Z,1003.0
2018-04-06T10:00:23.282Z,1002.9
2018-04-06T10:01:23.948Z,1002.9
2018-04-06T10:02:24.614Z,1002.9
2018-04-06T10:03:25.283Z,1002.9
2018-04-06T10:04:25.951Z,1002.9
2018-04-06T10:05:26.619Z,1002.9
2018-04-06T10:06:27.287Z,1002.9
2018-04-06T10:07:27.955Z,1002.9
2018-04-06T10:08:28.622Z,1002.8
2018-04-06T10:09:29.291Z,1002.8
2018-04-06T10:10:29.953Z,1002.8
2018-04-06T10:11:30.620Z,1002.7
2018-04-06T10:12:31.290Z,1002.7
2018-04-06T10:13:31.989Z,1002.7
2018-04-06T10:14:32.655Z,1002.7
2018-04-06T10:15:33.360Z,1002.7
2018-04-06T10:16:34.026Z,1002.7
2018-04-06T10:17:34.693Z,1002.7
2018-04-06T10:18:35.358Z,1002.7
2018-04-06T10:19:36.024Z,1002.8
2018-04-06T10:20:36.690Z,1002.7
2018-04-06T10:21:37.357Z,1002.7
2018-04-06T10:22:38.023Z,1002.7
2018-04-06T10:23:38.686Z,1002.7
2018-04-06T10:24:39.354Z,1002.7
2018-04-06T10:25:40.023Z,1002.6
2018-04-06T10:26:40.687Z,1002.6
2018-04-06T10:27:41.353Z,1002.6
2018-04-06T10:28:42.017Z,1002.6
2018-04-06T10:29:42.682Z,1002.5
2018-04-06T10:30:43.346Z,1002.5
2018-04-06T10:31:44.061Z,1002.5
2018-04-06T10:32:44.727Z,1002.4
2018-04-06T10:33:45.391Z,1002.4
2018-04-06T10:34:46.092Z,1002.4
2018-04-06T10:35:46.756Z,1002.4
2018-04-06T10:36:47.459Z,1002.4
2018-04-06T10:37:48.124Z,1002.4
2018-04-06T10:38:48.843Z,1002.4
2018-04-06T10:39:49.450Z,1002.4
2018-04-06T10:40:50.114Z,1002.4
2018-04-06T10:41:50.788Z,1002.3
2018-04-06T10:42:51.443Z,1002.3
2018-04-06T10:43:52.107Z,1002.3
2018-04-06T10:44:52.768Z,1002.3
2018-04-06T10:45:53.433Z,1002.3
2018-04-06T10:46:54.097Z,1002.3
2018-04-06T10:47:54.764Z,1002.2
2018-04-06T10:48:55.428Z,1002.2
2018-04-06T10:49:56.092Z,1002.2
2018-04-06T10:50:56.753Z,1002.2
2018-04-06T10:51:57.416Z,1002.2
2018-04-06T10:52:58.082Z,1002.2
2018-04-06T10:53:58.786Z,1002.2
2018-04-06T10:54:59.485Z,1002.2
2018-04-06T10:56:00.153Z,1002.2
2018-04-06T10:57:00.815Z,1002.1
2018-04-06T10:58:01.481Z,1002.2
2018-04-06T10:59:02.180Z,1002.1
2018-04-06T11:00:02.881Z,1002.1
2018-04-06T11:01:03.581Z,1002.1
2018-04-06T11:02:04.244Z,1002.1
2018-04-06T11:03:04.912Z,1002.1
2018-04-06T11:04:05.610Z,1002.0
2018-04-06T11:05:06.272Z,1002.0
2018-04-06T11:06:06.935Z,1002.0
2018-04-06T11:07:07.598Z,1002.0
2018-04-06T11:08:08.261Z,1002.0
2018-04-06T11:09:08.922Z,1002.0
2018-04-06T11:10:09.704Z,1002.0
2018-04-06T11:11:10.247Z,1002.0
2018-04-06T11:12:10.915Z,1002.0
2018-04-06T11:13:11.575Z,1001.9
2018-04-06T11:14:12.240Z,1001.9
2018-04-06T11:15:12.938Z,1001.9
2018-04-06T11:16:13.600Z,1002.0
2018-04-06T11:17:14.262Z,1002.0
2018-04-06T11:18:14.926Z,1001.9
2018-04-06T11:19:15.591Z,1001.9
2018-04-06T11:20:16.253Z,1001.9
2018-04-06T11:21:16.916Z,1001.9
2018-04-06T11:22:17.580Z,1001.9
2018-04-06T11:23:18.244Z,1001.9
2018-04-06T11:24:18.908Z,1001.9
2018-04-06T11:25:19.572Z,1001.8
2018-04-06T11:26:20.234Z,1001.8
2018-04-06T11:27:20.934Z,1001.9
2018-04-06T11:28:21.598Z,1001.8
2018-04-06T11:29:22.260Z,1001.8
2018-04-06T11:30:22.922Z,1001.7
2018-04-06T11:31:23.584Z,1001.8
2018-04-06T11:32:24.247Z,1001.7
2018-04-06T11:33:24.911Z,1001.7
2018-04-06T11:34:25.574Z,1001.7
2018-04-06T11:35:26.238Z,1001.7
2018-04-06T11:36:26.899Z,1001.7
2018-04-06T11:37:27.575Z,1001.7
2018-04-06T11:38:28.223Z,1001.7
2018-04-06T11:39:28.886Z,1001.7
2018-04-06T11:40:29.552Z,1001.7
2018-04-06T11:41:30.213Z,1001.7
2018-04-06T11:42:30.876Z,1001.6
2018-04-06T11:43:31.539Z,1001.7
2018-04-06T11:44:32.202Z,1001.6
2018-04-06T11:45:32.864Z,1001.5
2018-04-06T11:46:33.533Z,1001.6
2018-04-06T11:47:34.190Z,1001.5
2018-04-06T11:48:34.854Z,1001.6
2018-04-06T11:49:35.553Z,1001.5
2018-04-06T11:50:36.217Z,1001.5
2018-04-06T11:51:36.879Z,1001.5
2018-04-06T11:52:37.540Z,1001.5
2018-04-06T11:53:38.206Z,1001.5
2018-04-06T11:54:38.905Z,1001.5
2018-04-06T11:55:39.569Z,1001.5
2018-04-06T11:56:40.232Z,1001.5
2018-04-06T11:57:40.931Z,1001.5
2018-04-06T11:58:41.594Z,1001.5
2018-04-06T11:59:42.261Z,1001.5
2018-04-06T12:00:42.920Z,1001.4
2018-04-06T12:01:43.583Z,1001.4
2018-04-06T12:02:44.247Z,1001.4
2018-04-06T12:03:44.911Z,1001.4
2018-04-06T12:04:45.575Z,1001.4
2018-04-06T12:05:46.238Z,1001.4
2018-04-06T12:06:46.900Z,1001.4
2018-04-06T12:07:47.572Z,1001.4
2018-04-06T12:08:48.225Z,1001.4
2018-04-06T12:09:48.887Z,1001.4
2018-04-06T12:10:49.548Z,1001.4
2018-04-06T12:11:50.212Z,1001.3
2018-04-06T12:12:50.917Z,1001.3
2018-04-06T12:13:51.577Z,1001.3
2018-04-06T12:14:52.241Z,1001.3
2018-04-06T12:15:52.900Z,1001.3
2018-04-06T12:16:53.602Z,1001.3
2018-04-06T12:17:54.266Z,1001.3
2018-04-06T12:18:54.929Z,1001.4
2018-04-06T12:19:55.591Z,1001.3
2018-04-06T12:20:56.293Z,1001.2
2018-04-06T12:21:56.959Z,1001.2
2018-04-06T12:22:57.624Z,1001.2
2018-04-06T12:23:58.285Z,1001.2
2018-04-06T12:24:58.951Z,1001.2
2018-04-06T12:25:59.607Z,1001.1
2018-04-06T12:27:00.272Z,1001.1
2018-04-06T12:28:00.936Z,1001.1
2018-04-06T12:29:01.600Z,1001.1
2018-04-06T12:30:02.262Z,1001.1
2018-04-06T12:31:02.926Z,1001.1
2018-04-06T12:32:03.626Z,1001.0
2018-04-06T12:33:04.288Z,1001.0
2018-04-06T12:34:04.955Z,1001.0
2018-04-06T12:35:05.614Z,1000.9
2018-04-06T12:36:06.279Z,1000.9
2018-04-06T12:37:06.940Z,1000.9